Time,TemperatureF,DewpointF,PressureIn,WindDirection,WindDirectionDegrees,WindSpeedMPH,WindSpeedGustMPH,Humidity,HourlyPrecipIn,Conditions,Clouds,dailyrainin,SoftwareType,DateUTC
2013-07-15 00:12:00,70.6,62.0,30.12,SE,140,4.0,7.0,75,0.00,,,0.00,weatherlink.com 1.10,2013-07-15 05:12:00,
2013-07-15 00:27:00,70.5,62.0,30.12,SE,136,4.0,5.0,75,0.00,,,0.00,weatherlink.com 1.10,2013-07-15 05:27:00,
2013-07-15 00:42:00,70.5,62.0,30.12,SSE,158,2.0,7.0,75,0.00,,,0.00,weatherlink.com 1.10,2013-07-15 05:42:00,
2013-07-15 00:57:00,70.0,62.0,30.12,SSE,161,2.0,4.0,76,0.00,,,0.00,weatherlink.com 1.10,2013-07-15 05:57:00,
2013-07-15 01:12:00,69.4,62.0,30.12,ESE,110,2.0,4.0,78,0.00,,,0.00,weatherlink.com 1.10,2013-07-15 06:12:00,
2013-07-15 01:27:00,68.7,62.0,30.12,SSE,165,1.0,2.0,79,0.00,,,0.00,weatherlink.com 1.10,2013-07-15 06:27:00,
2013-07-15 01:42:00,68.0,62.0,30.11,SE,124,1.0,2.0,81,0.00,,,0.00,weatherlink.com 1.10,2013-07-15 06:42:00,
2013-07-15 01:57:00,67.6,62.0,30.12,ESE,120,2.0,2.0,82,0.00,,,0.00,weatherlink.com 1.10,2013-07-15 06:57:00,
2013-07-15 02:12:00,67.5,62.0,30.12,SE,139,2.0,3.0,82,0.00,,,0.00,weatherlink.com 1.10,2013-07-15 07:12:00,
2013-07-15 02:27:00,67.3,62.0,30.12,SE,124,2.0,3.0,83,0.00,,,0.00,weatherlink.com 1.10,2013-07-15 07:27:00,
2013-07-15 02:42:00,67.0,62.0,30.12,SE,128,1.0,3.0,83,0.00,,,0.00,weatherlink.com 1.10,2013-07-15 07:42:00,
2013-07-15 02:57:00,66.7,62.0,30.12,SE,127,1.0,3.0,84,0.00,,,0.00,weatherlink.com 1.10,2013-07-15 07:57:00,
2013-07-15 03:12:00,66.4,62.0,30.12,SSE,155,1.0,3.0,84,0.00,,,0.00,weatherlink.com 1.10,2013-07-15 08:12:00,
2013-07-15 03:27:00,65.8,62.0,30.12,SE,143,2.0,2.0,86,0.00,,,0.00,weatherlink.com 1.10,2013-07-15 08:27:00,
2013-07-15 03:42:00,65.8,62.0,30.12,SE,144,1.0,2.0,86,0.00,,,0.00,weatherlink.com 1.10,2013-07-15 08:42:00,
2013-07-15 03:57:00,65.5,62.0,30.12,SE,136,0.0,2.0,87,0.00,,,0.00,weatherlink.com 1.10,2013-07-15 08:57:00,
2013-07-15 04:12:00,65.3,61.0,30.13,SSE,151,1.0,3.0,87,0.00,,,0.00,weatherlink.com 1.10,2013-07-15 09:12:00,
2013-07-15 04:27:00,65.0,61.0,30.13,SE,129,0.0,2.0,88,0.00,,,0.00,weatherlink.com 1.10,2013-07-15 09:27:00,
2013-07-15 04:42:00,64.5,61.0,30.13,SSE,148,0.0,2.0,89,0.00,,,0.00,weatherlink.com 1.10,2013-07-15 09:42:00,
2013-07-15 04:57:00,64.3,61.0,30.13,SE,127,1.0,1.0,89,0.00,,,0.00,weatherlink.com 1.10,2013-07-15 09:57:00,
2013-07-15 05:12:00,64.3,61.0,30.13,SSE,158,1.0,2.0,89,0.00,,,0.00,weatherlink.com 1.10,2013-07-15 10:12:00,
2013-07-15 05:27:00,64.1,61.0,30.13,SE,143,1.0,2.0,89,0.00,,,0.00,weatherlink.com 1.10,2013-07-15 10:27:00,
2013-07-15 05:42:00,64.1,61.0,30.14,SSE,159,0.0,2.0,89,0.00,,,0.00,weatherlink.com 1.10,2013-07-15 10:42:00,
2013-07-15 05:58:00,62.9,60.0,30.14,SSE,159,0.0,1.0,90,0.00,,,0.00,weatherlink.com 1.10,2013-07-15 10:58:00,
2013-07-15 06:13:00,63.7,61.0,30.14,SSE,148,0.0,2.0,90,0.00,,,0.00,weatherlink.com 1.10,2013-07-15 11:13:00,
2013-07-15 06:28:00,64.4,61.0,30.14,SE,138,1.0,2.0,89,0.00,,,0.00,weatherlink.com 1.10,2013-07-15 11:28:00,
2013-07-15 06:43:00,65.7,62.0,30.15,SSE,147,0.0,1.0,87,0.00,,,0.00,weatherlink.com 1.10,2013-07-15 11:43:00,
2013-07-15 06:58:00,66.6,62.0,30.15,SE,136,0.0,2.0,84,0.00,,,0.00,weatherlink.com 1.10,2013-07-15 11:58:00,
2013-07-15 07:13:00,66.6,62.0,30.15,ESE,122,3.0,7.0,85,0.00,,,0.00,weatherlink.com 1.10,2013-07-15 12:13:00,
2013-07-15 07:28:00,67.7,63.0,30.15,SSE,158,3.0,4.0,84,0.00,,,0.00,weatherlink.com 1.10,2013-07-15 12:28:00,
2013-07-15 07:43:00,69.0,64.0,30.16,SE,145,3.0,5.0,83,0.00,,,0.00,weatherlink.com 1.10,2013-07-15 12:43:00,
2013-07-15 07:58:00,69.9,64.0,30.16,South,186,5.0,5.0,82,0.00,,,0.00,weatherlink.com 1.10,2013-07-15 12:58:00,
2013-07-15 08:13:00,71.2,65.0,30.16,SE,145,3.0,6.0,81,0.00,,,0.00,weatherlink.com 1.10,2013-07-15 13:13:00,
2013-07-15 08:28:00,72.1,65.0,30.16,SE,132,6.0,7.0,78,0.00,,,0.00,weatherlink.com 1.10,2013-07-15 13:28:00,
2013-07-15 08:43:00,73.8,65.0,30.17,SSE,163,4.0,6.0,74,0.00,,,0.00,weatherlink.com 1.10,2013-07-15 13:43:00,
2013-07-15 08:58:00,74.8,65.0,30.17,South,177,6.0,9.0,71,0.00,,,0.00,weatherlink.com 1.10,2013-07-15 13:58:00,
2013-07-15 09:13:00,75.7,66.0,30.17,SE,146,8.0,9.0,71,0.00,,,0.00,weatherlink.com 1.10,2013-07-15 14:13:00,
2013-07-15 09:28:00,76.2,65.0,30.17,South,184,6.0,9.0,69,0.00,,,0.00,weatherlink.com 1.10,2013-07-15 14:28:00,
2013-07-15 09:43:00,76.7,65.0,30.17,SSW,207,6.0,8.0,68,0.00,,,0.00,weatherlink.com 1.10,2013-07-15 14:43:00,
2013-07-15 09:57:00,77.9,67.7,30.17,SSW,198,3.0,5.0,71,0.00,,,0.00,Wunderground v.1.15,2013-07-15 14:57:00,
2013-07-15 10:02:00,78.1,66.7,30.17,SW,225,6.0,7.0,68,0.00,,,0.00,Wunderground v.1.15,2013-07-15 15:02:00,
2013-07-15 10:07:00,78.1,66.7,30.17,SSW,204,4.0,8.0,68,0.00,,,0.00,Wunderground v.1.15,2013-07-15 15:07:00,
2013-07-15 10:12:00,78.6,67.2,30.16,SE,134,4.0,7.0,68,0.00,,,0.00,Wunderground v.1.15,2013-07-15 15:12:00,
2013-07-15 10:18:00,78.7,65.9,30.16,SE,143,6.0,8.0,65,0.00,,,0.00,Wunderground v.1.15,2013-07-15 15:18:00,
2013-07-15 10:23:00,78.5,65.8,30.16,South,191,3.0,7.0,65,0.00,,,0.00,Wunderground v.1.15,2013-07-15 15:23:00,
2013-07-15 10:28:00,78.9,64.8,30.16,SSE,155,2.0,7.0,62,0.00,,,0.00,Wunderground v.1.15,2013-07-15 15:28:00,
2013-07-15 10:33:00,79.3,65.6,30.16,South,188,4.0,8.0,63,0.00,,,0.00,Wunderground v.1.15,2013-07-15 15:33:00,
2013-07-15 10:39:00,79.7,65.5,30.16,South,169,4.0,9.0,62,0.00,,,0.00,Wunderground v.1.15,2013-07-15 15:39:00,
2013-07-15 10:44:00,79.9,65.2,30.16,South,187,6.0,9.0,61,0.00,,,0.00,Wunderground v.1.15,2013-07-15 15:44:00,
2013-07-15 10:49:00,80.1,65.9,30.16,SSE,155,5.0,9.0,62,0.00,,,0.00,Wunderground v.1.15,2013-07-15 15:49:00,
2013-07-15 10:55:00,80.7,66.5,30.16,SSE,151,8.0,8.0,62,0.00,,,0.00,Wunderground v.1.15,2013-07-15 15:55:00,
2013-07-15 11:00:00,80.4,64.3,30.16,South,188,4.0,4.0,58,0.00,,,0.00,Wunderground v.1.15,2013-07-15 16:00:00,
2013-07-15 11:05:00,81.1,65.4,30.16,SSW,201,4.0,7.0,59,0.00,,,0.00,Wunderground v.1.15,2013-07-15 16:05:00,
2013-07-15 11:10:00,80.8,63.6,30.16,South,177,4.0,5.0,56,0.00,,,0.00,Wunderground v.1.15,2013-07-15 16:10:00,
2013-07-15 11:15:00,81.0,64.3,30.16,SSE,166,6.0,10.0,57,0.00,,,0.00,Wunderground v.1.15,2013-07-15 16:15:00,
2013-07-15 11:20:00,80.8,63.6,30.16,South,187,7.0,7.0,56,0.00,,,0.00,Wunderground v.1.15,2013-07-15 16:20:00,
2013-07-15 11:26:00,81.4,64.2,30.16,South,190,3.0,7.0,56,0.00,,,0.00,Wunderground v.1.15,2013-07-15 16:26:00,
2013-07-15 11:31:00,81.9,63.1,30.16,SSW,196,5.0,5.0,53,0.00,,,0.00,Wunderground v.1.15,2013-07-15 16:31:00,
2013-07-15 11:36:00,82.2,63.9,30.16,WSW,255,7.0,9.0,54,0.00,,,0.00,Wunderground v.1.15,2013-07-15 16:36:00,
2013-07-15 11:42:00,82.0,64.8,30.15,SSW,211,8.0,8.0,56,0.00,,,0.00,Wunderground v.1.15,2013-07-15 16:42:00,
2013-07-15 11:47:00,82.3,65.0,30.15,SE,127,7.0,8.0,56,0.00,,,0.00,Wunderground v.1.15,2013-07-15 16:47:00,
2013-07-15 11:52:00,81.9,63.6,30.15,SW,235,9.0,10.0,54,0.00,,,0.00,Wunderground v.1.15,2013-07-15 16:52:00,
2013-07-15 11:57:00,82.0,63.7,30.15,South,169,7.0,10.0,54,0.00,,,0.00,Wunderground v.1.15,2013-07-15 16:57:00,
2013-07-15 12:02:00,82.4,64.6,30.15,ESE,118,5.0,7.0,55,0.00,,,0.00,Wunderground v.1.15,2013-07-15 17:02:00,
2013-07-15 12:07:00,82.8,64.5,30.15,SSW,203,6.0,9.0,54,0.00,,,0.00,Wunderground v.1.15,2013-07-15 17:07:00,
2013-07-15 12:13:00,82.6,61.5,30.16,ESE,120,7.0,11.0,49,0.00,,,0.00,Wunderground v.1.15,2013-07-15 17:13:00,
2013-07-15 12:18:00,82.6,62.6,30.15,SSE,152,9.0,12.0,51,0.00,,,0.00,Wunderground v.1.15,2013-07-15 17:18:00,
2013-07-15 12:23:00,82.0,62.1,30.15,SSW,198,5.0,8.0,51,0.00,,,0.00,Wunderground v.1.15,2013-07-15 17:23:00,
2013-07-15 12:28:00,82.3,62.9,30.15,SW,217,5.0,8.0,52,0.00,,,0.00,Wunderground v.1.15,2013-07-15 17:28:00,
2013-07-15 12:34:00,82.7,62.2,30.15,SSW,200,8.0,11.0,50,0.00,,,0.00,Wunderground v.1.15,2013-07-15 17:34:00,
2013-07-15 12:39:00,82.6,63.2,30.15,SSW,196,7.0,11.0,52,0.00,,,0.00,Wunderground v.1.15,2013-07-15 17:39:00,
2013-07-15 12:45:00,82.8,62.3,30.15,ESE,112,10.0,10.0,50,0.00,,,0.00,Wunderground v.1.15,2013-07-15 17:45:00,
2013-07-15 12:50:00,83.0,64.6,30.15,SSE,162,8.0,10.0,54,0.00,,,0.00,Wunderground v.1.15,2013-07-15 17:50:00,
2013-07-15 12:55:00,83.6,62.4,30.15,SE,124,10.0,10.0,49,0.00,,,0.00,Wunderground v.1.15,2013-07-15 17:55:00,
2013-07-15 13:01:00,83.5,62.9,30.15,SSE,156,8.0,8.0,50,0.00,,,0.00,Wunderground v.1.15,2013-07-15 18:01:00,
2013-07-15 13:06:00,83.7,61.9,30.15,SSE,166,12.0,13.0,48,0.00,,,0.00,Wunderground v.1.15,2013-07-15 18:06:00,
2013-07-15 13:11:00,83.6,60.6,30.15,SE,138,6.0,10.0,46,0.00,,,0.00,Wunderground v.1.15,2013-07-15 18:11:00,
2013-07-15 13:17:00,83.6,62.4,30.14,SE,141,5.0,16.0,49,0.00,,,0.00,Wunderground v.1.15,2013-07-15 18:17:00,
2013-07-15 13:23:00,83.8,61.4,30.14,SW,218,7.0,12.0,47,0.00,,,0.00,Wunderground v.1.15,2013-07-15 18:23:00,
2013-07-15 13:28:00,84.0,63.4,30.14,SSE,162,9.0,12.0,50,0.00,,,0.00,Wunderground v.1.15,2013-07-15 18:28:00,
2013-07-15 13:34:00,83.9,61.5,30.14,SW,218,11.0,15.0,47,0.00,,,0.00,Wunderground v.1.15,2013-07-15 18:34:00,
2013-07-15 13:39:00,84.6,61.5,30.14,SE,144,14.0,16.0,46,0.00,,,0.00,Wunderground v.1.15,2013-07-15 18:39:00,
2013-07-15 13:44:00,84.4,62.6,30.14,SSE,160,7.0,17.0,48,0.00,,,0.00,Wunderground v.1.15,2013-07-15 18:44:00,
2013-07-15 13:50:00,84.4,61.4,30.14,SE,136,7.0,9.0,46,0.00,,,0.00,Wunderground v.1.15,2013-07-15 18:50:00,
2013-07-15 13:55:00,83.8,62.0,30.14,SE,126,5.0,10.0,48,0.00,,,0.00,Wunderground v.1.15,2013-07-15 18:55:00,
2013-07-15 14:01:00,84.2,62.4,30.14,South,177,8.0,8.0,48,0.00,,,0.00,Wunderground v.1.15,2013-07-15 19:01:00,
2013-07-15 14:07:00,84.0,62.0,30.14,SSE,156,9.0,16.0,48,0.00,,,0.00,weatherlink.com 1.10,2013-07-15 19:07:00,
2013-07-15 14:22:00,83.4,61.0,30.13,ESE,122,9.0,17.0,47,0.00,,,0.00,weatherlink.com 1.10,2013-07-15 19:22:00,
2013-07-15 14:37:00,84.4,62.0,30.13,SSW,193,7.0,18.0,47,0.00,,,0.00,weatherlink.com 1.10,2013-07-15 19:37:00,
2013-07-15 14:52:00,85.2,62.0,30.12,South,172,9.0,15.0,46,0.00,,,0.00,weatherlink.com 1.10,2013-07-15 19:52:00,
2013-07-15 15:07:00,85.3,63.0,30.12,SSE,159,6.0,14.0,47,0.00,,,0.00,weatherlink.com 1.10,2013-07-15 20:07:00,
2013-07-15 15:22:00,85.8,64.0,30.11,South,187,7.0,18.0,49,0.00,,,0.00,weatherlink.com 1.10,2013-07-15 20:22:00,
2013-07-15 15:37:00,84.9,64.0,30.11,SE,129,10.0,12.0,50,0.00,,,0.00,weatherlink.com 1.10,2013-07-15 20:37:00,
2013-07-15 16:08:00,84.3,65.0,30.10,ESE,113,7.0,12.0,52,0.00,,,0.00,weatherlink.com 1.10,2013-07-15 21:08:00,
2013-07-15 16:23:00,83.6,66.0,30.10,SE,139,2.0,9.0,55,0.00,,,0.00,weatherlink.com 1.10,2013-07-15 21:23:00,
2013-07-15 16:38:00,82.9,67.0,30.10,SE,135,9.0,13.0,58,0.00,,,0.00,weatherlink.com 1.10,2013-07-15 21:38:00,
2013-07-15 16:53:00,83.1,66.0,30.10,ESE,117,6.0,15.0,57,0.00,,,0.00,weatherlink.com 1.10,2013-07-15 21:53:00,
2013-07-15 17:08:00,82.9,67.0,30.10,ESE,112,4.0,10.0,59,0.00,,,0.00,weatherlink.com 1.10,2013-07-15 22:08:00,
2013-07-15 17:23:00,83.1,67.0,30.09,SE,126,6.0,10.0,58,0.00,,,0.00,weatherlink.com 1.10,2013-07-15 22:23:00,
2013-07-15 17:38:00,83.1,67.0,30.09,East,91,5.0,8.0,59,0.00,,,0.00,weatherlink.com 1.10,2013-07-15 22:38:00,
2013-07-15 17:53:00,83.2,69.0,30.08,ESE,122,2.0,10.0,62,0.00,,,0.00,weatherlink.com 1.10,2013-07-15 22:53:00,
2013-07-15 18:23:00,83.0,69.0,30.08,NNE,29,1.0,6.0,62,0.00,,,0.00,weatherlink.com 1.10,2013-07-15 23:23:00,
2013-07-15 18:38:00,83.0,68.0,30.07,ENE,74,3.0,6.0,61,0.00,,,0.00,weatherlink.com 1.10,2013-07-15 23:38:00,
2013-07-15 18:53:00,83.4,68.0,30.07,ESE,120,3.0,5.0,61,0.00,,,0.00,weatherlink.com 1.10,2013-07-15 23:53:00,
2013-07-15 19:08:00,83.8,68.0,30.07,ESE,114,1.0,5.0,60,0.00,,,0.00,weatherlink.com 1.10,2013-07-16 00:08:00,
2013-07-15 19:23:00,83.4,69.0,30.07,East,94,4.0,5.0,62,0.00,,,0.00,weatherlink.com 1.10,2013-07-16 00:23:00,
2013-07-15 19:38:00,83.1,69.0,30.07,SSE,156,5.0,11.0,62,0.00,,,0.00,weatherlink.com 1.10,2013-07-16 00:38:00,
2013-07-15 19:53:00,82.5,68.0,30.07,ESE,113,4.0,8.0,62,0.00,,,0.00,weatherlink.com 1.10,2013-07-16 00:53:00,
2013-07-15 20:08:00,81.7,69.0,30.07,SE,125,3.0,5.0,65,0.00,,,0.00,weatherlink.com 1.10,2013-07-16 01:08:00,
2013-07-15 20:23:00,80.9,69.0,30.08,ESE,113,2.0,5.0,67,0.00,,,0.00,weatherlink.com 1.10,2013-07-16 01:23:00,
2013-07-15 20:38:00,80.2,69.0,30.07,ESE,117,4.0,4.0,69,0.00,,,0.00,weatherlink.com 1.10,2013-07-16 01:38:00,
2013-07-15 20:53:00,79.7,70.0,30.07,East,82,2.0,5.0,71,0.00,,,0.00,weatherlink.com 1.10,2013-07-16 01:53:00,
2013-07-15 21:08:00,79.1,70.0,30.07,East,82,4.0,5.0,74,0.00,,,0.00,weatherlink.com 1.10,2013-07-16 02:08:00,
2013-07-15 21:23:00,78.2,70.0,30.08,ESE,113,5.0,6.0,76,0.00,,,0.00,weatherlink.com 1.10,2013-07-16 02:23:00,
2013-07-15 21:38:00,77.8,70.0,30.08,East,91,5.0,6.0,76,0.00,,,0.00,weatherlink.com 1.10,2013-07-16 02:38:00,
2013-07-15 22:08:00,77.0,69.0,30.09,ESE,105,5.0,6.0,76,0.00,,,0.00,weatherlink.com 1.10,2013-07-16 03:08:00,
2013-07-15 22:23:00,76.7,69.0,30.09,SE,144,5.0,7.0,76,0.00,,,0.00,weatherlink.com 1.10,2013-07-16 03:23:00,
2013-07-15 22:53:00,75.9,69.0,30.09,SSE,148,6.0,8.0,78,0.00,,,0.00,weatherlink.com 1.10,2013-07-16 03:53:00,
2013-07-15 23:08:00,75.3,68.0,30.10,SSE,151,4.0,7.0,79,0.00,,,0.00,weatherlink.com 1.10,2013-07-16 04:08:00,
2013-07-15 23:24:00,75.2,68.0,30.10,SSE,157,6.0,8.0,79,0.00,,,0.00,weatherlink.com 1.10,2013-07-16 04:24:00,
2013-07-15 23:38:00,75.0,68.0,30.10,South,169,4.0,7.0,80,0.00,,,0.00,weatherlink.com 1.10,2013-07-16 04:38:00,
2013-07-15 23:53:00,74.9,68.0,30.10,SSE,155,4.0,9.0,80,0.00,,,0.00,weatherlink.com 1.10,2013-07-16 04:53:00,